createdAt,value
2019-01-09T00:01:07.600Z,100915.89
2019-01-09T00:03:37.381Z,100913.73
2019-01-09T00:06:07.616Z,100919.25
2019-01-09T00:08:37.484Z,100928.44
2019-01-09T00:11:07.255Z,100933.83
2019-01-09T00:13:37.038Z,100921.94
2019-01-09T00:16:06.815Z,100914.13
2019-01-09T00:18:36.561Z,100922.16
2019-01-09T00:21:06.450Z,100912.42
2019-01-09T00:23:36.231Z,100910.95
2019-01-09T00:26:06.047Z,100914.38
2019-01-09T00:28:35.881Z,100908.38
2019-01-09T00:31:05.665Z,100913.41
2019-01-09T00:33:35.516Z,100912.59
2019-01-09T00:36:05.277Z,100906.52
2019-01-09T00:38:35.160Z,100905.23
2019-01-09T00:41:04.968Z,100904.56
2019-01-09T00:43:34.762Z,100908.51
2019-01-09T00:46:04.536Z,100906.97
2019-01-09T00:48:34.362Z,100897.33
2019-01-09T00:51:04.255Z,100901.23
2019-01-09T00:53:34.236Z,100905.09
2019-01-09T00:56:04.077Z,100892.33
2019-01-09T00:58:33.845Z,100899.69
2019-01-09T01:01:03.644Z,100909.91
2019-01-09T01:04:12.854Z,100904.39
2019-01-09T01:07:06.588Z,100905.94
2019-01-09T01:10:06.346Z,100904.14
2019-01-09T01:13:01.577Z,100904.06
2019-01-09T01:16:01.047Z,100917.63
2019-01-09T01:18:47.165Z,100921.26
2019-01-09T01:21:24.362Z,100936.40
2019-01-09T01:24:15.373Z,100943.66
2019-01-09T01:26:55.441Z,100933.70
2019-01-09T01:30:03.124Z,100938.87
2019-01-09T01:32:48.704Z,100942.63
2019-01-09T01:35:35.014Z,100933.67
2019-01-09T01:38:26.216Z,100933.62
2019-01-09T01:41:09.827Z,100936.22
2019-01-09T01:43:58.309Z,100940.28
2019-01-09T01:46:50.625Z,100922.27
2019-01-09T01:50:08.983Z,100933.90
2019-01-09T01:53:04.150Z,100939.82
2019-01-09T01:56:20.945Z,100934.91
2019-01-09T01:59:01.189Z,100923.98
2019-01-09T02:01:50.567Z,100931.33
2019-01-09T02:04:45.993Z,100925.30
2019-01-09T02:07:52.004Z,100939.45
2019-01-09T02:10:59.574Z,100939.54
2019-01-09T02:13:50.996Z,100937.84
2019-01-09T02:17:00.051Z,100939.36
2019-01-09T02:19:39.818Z,100936.50
2019-01-09T02:22:45.978Z,100918.66
2019-01-09T02:25:46.032Z,100929.68
2019-01-09T02:28:38.248Z,100936.22
2019-01-09T02:31:19.000Z,100939.72
2019-01-09T02:33:48.829Z,100935.96
2019-01-09T02:36:18.601Z,100936.52
2019-01-09T02:38:48.393Z,100927.49
2019-01-09T02:41:18.196Z,100929.70
2019-01-09T02:43:47.974Z,100927.55
2019-01-09T02:46:17.878Z,100943.70
2019-01-09T02:48:48.752Z,100942.98
2019-01-09T02:51:18.770Z,100936.66
2019-01-09T02:53:48.613Z,100938.81
2019-01-09T02:56:18.500Z,100938.87
2019-01-09T02:58:48.277Z,100935.70
2019-01-09T03:01:18.079Z,100941.13
2019-01-09T03:03:47.975Z,100943.10
2019-01-09T03:06:23.180Z,100942.28
2019-01-09T03:08:50.060Z,100940.89
2019-01-09T03:11:19.854Z,100963.28
2019-01-09T03:13:49.651Z,100947.75
2019-01-09T03:16:19.415Z,100942.84
2019-01-09T03:18:49.196Z,100954.69
2019-01-09T03:21:19.099Z,100953.40
2019-01-09T03:23:48.889Z,100951.23
2019-01-09T03:26:18.688Z,100948.67
2019-01-09T03:28:48.515Z,100959.01
2019-01-09T03:31:18.300Z,100944.20
2019-01-09T03:33:48.379Z,100941.73
2019-01-09T03:36:18.262Z,100948.99
2019-01-09T03:38:48.114Z,100949.13
2019-01-09T03:41:18.002Z,100948.91
2019-01-09T03:43:47.786Z,100941.19
2019-01-09T03:46:17.556Z,100950.27
2019-01-09T03:48:47.680Z,100957.45
2019-01-09T03:51:17.443Z,100953.31
2019-01-09T03:53:47.261Z,100945.87
2019-01-09T03:56:17.241Z,100942.61
2019-01-09T03:58:47.043Z,100946.23
2019-01-09T04:01:16.836Z,100936.81
2019-01-09T04:03:46.605Z,100940.12
2019-01-09T04:06:17.003Z,100946.23
2019-01-09T04:08:47.229Z,100942.56
2019-01-09T04:11:17.002Z,100939.85
2019-01-09T04:13:46.818Z,100944.07
2019-01-09T04:16:16.609Z,100931.30
2019-01-09T04:18:46.415Z,100937.39
2019-01-09T04:21:16.201Z,100946.66
2019-01-09T04:23:46.018Z,100937.92
2019-01-09T04:26:15.839Z,100940.07
2019-01-09T04:28:45.586Z,100930.61
2019-01-09T04:31:15.358Z,100935.47
2019-01-09T04:33:45.139Z,100941.02
2019-01-09T04:36:15.007Z,100943.27
2019-01-09T04:38:44.805Z,100938.17
2019-01-09T04:41:14.588Z,100943.14
2019-01-09T04:43:44.438Z,100938.78
2019-01-09T04:46:14.211Z,100941.78
2019-01-09T04:48:43.995Z,100946.58
2019-01-09T04:51:13.805Z,100961.05
2019-01-09T04:53:43.590Z,100952.88
2019-01-09T04:56:13.391Z,100957.66
2019-01-09T04:58:43.178Z,100950.52
2019-01-09T05:01:13.033Z,100958.09
2019-01-09T05:03:42.837Z,100956.59
2019-01-09T05:06:13.126Z,100962.80
2019-01-09T05:08:42.916Z,100960.72
2019-01-09T05:11:12.733Z,100959.41
2019-01-09T05:13:42.841Z,100959.08
2019-01-09T05:16:12.610Z,100959.04
2019-01-09T05:18:42.391Z,100954.05
2019-01-09T05:21:12.178Z,100952.27
2019-01-09T05:23:42.004Z,100972.50
2019-01-09T05:26:11.794Z,100965.72
2019-01-09T05:28:41.607Z,100969.98
2019-01-09T05:31:11.408Z,100972.03
2019-01-09T05:33:41.187Z,100973.63
2019-01-09T05:36:11.054Z,100968.91
2019-01-09T05:38:40.898Z,100976.00
2019-01-09T05:41:10.749Z,100975.44
2019-01-09T05:43:40.533Z,100968.98
2019-01-09T05:46:10.332Z,100966.59
2019-01-09T05:48:40.113Z,100969.30
2019-01-09T05:51:09.936Z,100968.84
2019-01-09T05:53:39.727Z,100970.05
2019-01-09T05:56:09.515Z,100957.55
2019-01-09T05:58:39.277Z,100952.45
2019-01-09T06:01:09.087Z,100950.31
2019-01-09T06:03:38.903Z,100945.08
2019-01-09T06:06:08.713Z,100948.44
2019-01-09T06:08:38.511Z,100938.37
2019-01-09T06:11:08.319Z,100938.84
2019-01-09T06:13:38.157Z,100940.27
2019-01-09T06:16:08.601Z,100946.55
2019-01-09T06:18:38.405Z,100950.02
2019-01-09T06:21:08.483Z,100951.44
2019-01-09T06:23:38.309Z,100942.17
2019-01-09T06:26:08.101Z,100948.12
2019-01-09T06:28:37.857Z,100947.94
2019-01-09T06:31:07.663Z,100945.85
2019-01-09T06:33:37.450Z,100950.30
2019-01-09T06:36:07.236Z,100949.83
2019-01-09T06:38:37.082Z,100968.87
2019-01-09T06:41:06.819Z,100967.20
2019-01-09T06:43:36.687Z,100973.72
2019-01-09T06:46:06.552Z,100989.93
2019-01-09T06:48:36.460Z,100983.98
2019-01-09T06:51:06.304Z,100988.05
2019-01-09T06:53:36.236Z,100985.63
2019-01-09T06:56:05.995Z,100988.71
2019-01-09T06:58:35.795Z,100991.42
2019-01-09T07:01:05.539Z,100994.27
2019-01-09T07:03:35.352Z,100994.33
2019-01-09T07:06:05.153Z,100997.55
2019-01-09T07:08:34.950Z,100994.89
2019-01-09T07:11:04.752Z,101001.89
2019-01-09T07:13:34.566Z,101013.55
2019-01-09T07:16:04.344Z,101011.95
2019-01-09T07:18:34.249Z,101015.63
2019-01-09T07:21:04.023Z,101019.41
2019-01-09T07:23:33.842Z,101021.77
2019-01-09T07:26:05.181Z,101028.29
2019-01-09T07:28:34.974Z,101026.74
2019-01-09T07:31:04.822Z,101021.05
2019-01-09T07:33:34.965Z,101017.80
2019-01-09T07:36:04.878Z,101018.88
2019-01-09T07:38:34.907Z,101018.61
2019-01-09T07:41:04.690Z,101023.89
2019-01-09T07:43:34.498Z,101019.52
2019-01-09T07:46:04.560Z,101025.84
2019-01-09T07:48:34.324Z,101023.15
2019-01-09T07:51:04.130Z,101032.84
2019-01-09T07:53:33.955Z,101028.38
2019-01-09T07:56:03.761Z,101034.34
2019-01-09T07:58:33.531Z,101030.64
2019-01-09T08:01:03.348Z,101027.31
2019-01-09T08:03:33.133Z,101024.39
2019-01-09T08:06:02.959Z,101024.33
2019-01-09T08:08:32.747Z,101035.07
2019-01-09T08:11:02.580Z,101029.89
2019-01-09T08:13:32.357Z,101028.65
2019-01-09T08:16:02.161Z,101034.09
2019-01-09T08:18:31.986Z,101033.59
2019-01-09T08:21:05.447Z,101033.53
2019-01-09T08:23:36.216Z,101043.55
2019-01-09T08:26:06.022Z,101044.21
2019-01-09T08:28:35.806Z,101048.73
2019-01-09T08:31:05.927Z,101048.69
2019-01-09T08:33:35.702Z,101051.20
2019-01-09T08:36:05.457Z,101050.42
2019-01-09T08:38:35.294Z,101059.28
2019-01-09T08:41:05.078Z,101060.81
2019-01-09T08:43:34.875Z,101058.75
2019-01-09T08:46:04.653Z,101056.66
2019-01-09T08:48:34.461Z,101054.33
2019-01-09T08:51:04.247Z,101056.96
2019-01-09T08:53:34.027Z,101071.30
2019-01-09T08:56:06.628Z,101070.39
2019-01-09T08:58:36.414Z,101090.59
2019-01-09T09:01:06.211Z,101102.06
2019-01-09T09:03:35.985Z,101088.86
2019-01-09T09:06:05.872Z,101095.52
2019-01-09T09:08:35.978Z,101104.42
2019-01-09T09:11:05.768Z,101095.00
2019-01-09T09:13:38.276Z,101102.88
2019-01-09T09:16:09.219Z,101099.05
2019-01-09T09:18:39.006Z,101109.58
2019-01-09T09:21:09.014Z,101109.80
2019-01-09T09:23:38.837Z,101116.82
2019-01-09T09:26:08.653Z,101124.07
2019-01-09T09:28:38.443Z,101123.95
2019-01-09T09:31:08.253Z,101122.11
2019-01-09T09:33:38.052Z,101127.20
2019-01-09T09:36:07.887Z,101124.65
2019-01-09T09:38:37.798Z,101131.67
2019-01-09T09:41:07.582Z,101133.41
2019-01-09T09:43:37.414Z,101136.13
2019-01-09T09:46:07.229Z,101136.06
2019-01-09T09:48:36.989Z,101136.73
2019-01-09T09:51:06.791Z,101131.16
2019-01-09T09:53:36.620Z,101137.95
2019-01-09T09:56:06.422Z,101141.19
2019-01-09T09:58:36.243Z,101139.91
2019-01-09T10:01:06.612Z,101154.55
2019-01-09T10:03:36.415Z,101159.13
2019-01-09T10:06:06.201Z,101153.61
2019-01-09T10:08:36.134Z,101144.41
2019-01-09T10:11:06.819Z,101149.05
2019-01-09T10:13:36.614Z,101152.95
2019-01-09T10:16:06.437Z,101148.03
2019-01-09T10:18:36.303Z,101144.16
2019-01-09T10:21:06.396Z,101140.13
2019-01-09T10:23:36.182Z,101150.22
2019-01-09T10:26:05.948Z,101145.29
2019-01-09T10:28:35.743Z,101139.26
2019-01-09T10:31:05.629Z,101144.27
2019-01-09T10:33:35.480Z,101146.17
2019-01-09T10:36:05.352Z,101139.13
2019-01-09T10:38:38.139Z,101141.39
2019-01-09T10:41:06.656Z,101142.51
2019-01-09T10:43:36.461Z,101138.09
2019-01-09T10:46:06.214Z,101143.50
2019-01-09T10:48:36.025Z,101142.88
2019-01-09T10:51:05.811Z,101137.80
2019-01-09T10:53:35.583Z,101139.06
2019-01-09T10:56:05.733Z,101135.39
2019-01-09T10:58:35.801Z,101140.80
2019-01-09T11:01:05.914Z,101145.17
2019-01-09T11:03:35.725Z,101149.84
2019-01-09T11:06:05.592Z,101149.61
2019-01-09T11:08:35.377Z,101142.55
2019-01-09T11:11:05.247Z,101145.28
2019-01-09T11:13:35.404Z,101137.30
2019-01-09T11:16:05.393Z,101149.78
2019-01-09T11:18:35.183Z,101138.66
2019-01-09T11:21:05.104Z,101129.69
2019-01-09T11:23:34.864Z,101133.22
2019-01-09T11:26:04.760Z,101131.27
2019-01-09T11:28:34.541Z,101134.30
2019-01-09T11:31:04.426Z,101138.86
2019-01-09T11:33:34.198Z,101130.47
2019-01-09T11:36:04.214Z,101129.58
2019-01-09T11:38:34.005Z,101125.59
2019-01-09T11:41:06.230Z,101129.28
2019-01-09T11:43:36.021Z,101125.89
2019-01-09T11:46:05.934Z,101130.64
2019-01-09T11:48:35.707Z,101125.70
2019-01-09T11:51:05.540Z,101132.91
2019-01-09T11:53:35.410Z,101138.84
2019-01-09T11:56:05.702Z,101120.22
2019-01-09T11:58:35.479Z,101124.59
2019-01-09T12:01:05.507Z,101125.59
2019-01-09T12:03:35.300Z,101115.94
2019-01-09T12:06:05.088Z,101110.41
2019-01-09T12:08:34.902Z,101113.48
2019-01-09T12:11:04.795Z,101110.06
2019-01-09T12:13:34.769Z,101104.84
2019-01-09T12:16:08.226Z,101104.01
2019-01-09T12:18:36.475Z,101106.55
2019-01-09T12:21:16.298Z,101102.43
2019-01-09T12:23:37.882Z,101103.45
2019-01-09T12:26:07.683Z,101102.28
2019-01-09T12:28:37.466Z,101106.03
2019-01-09T12:31:07.444Z,101111.11
2019-01-09T12:33:37.210Z,101101.50
2019-01-09T12:36:07.013Z,101111.95
2019-01-09T12:38:36.884Z,101114.55
2019-01-09T12:41:06.689Z,101113.60
2019-01-09T12:43:36.487Z,101106.72
2019-01-09T12:46:06.586Z,101109.00
2019-01-09T12:48:36.402Z,101119.35
2019-01-09T12:51:06.182Z,101126.35
2019-01-09T12:53:35.940Z,101118.63
2019-01-09T12:56:05.730Z,101124.13
2019-01-09T12:58:35.484Z,101123.09
2019-01-09T13:01:05.371Z,101119.86
2019-01-09T13:03:35.158Z,101119.06
2019-01-09T13:06:04.958Z,101121.16
2019-01-09T13:08:34.749Z,101124.81
2019-01-09T13:11:04.653Z,101128.34
2019-01-09T13:13:34.475Z,101139.72
2019-01-09T13:16:04.469Z,101135.91
2019-01-09T13:18:34.248Z,101137.42
2019-01-09T13:21:04.017Z,101132.39
2019-01-09T13:23:33.820Z,101143.53
2019-01-09T13:26:05.670Z,101150.56
2019-01-09T13:28:35.554Z,101156.61
2019-01-09T13:31:05.318Z,101152.47
2019-01-09T13:33:35.226Z,101154.86
2019-01-09T13:36:05.216Z,101163.30
2019-01-09T13:38:35.030Z,101160.77
2019-01-09T13:41:05.329Z,101159.80
2019-01-09T13:43:35.144Z,101169.41
2019-01-09T13:46:05.141Z,101154.48
2019-01-09T13:48:34.939Z,101155.56
2019-01-09T13:51:05.322Z,101156.66
2019-01-09T13:53:35.205Z,101173.05
2019-01-09T13:56:05.034Z,101163.30
2019-01-09T13:58:34.816Z,101174.05
2019-01-09T14:01:04.896Z,101176.83
2019-01-09T14:03:34.682Z,101187.69
2019-01-09T14:06:05.005Z,101187.15
2019-01-09T14:08:34.849Z,101184.58
2019-01-09T14:11:04.611Z,101180.94
2019-01-09T14:13:34.402Z,101187.85
2019-01-09T14:16:04.230Z,101186.30
2019-01-09T14:18:34.014Z,101185.86
2019-01-09T14:21:03.785Z,101191.39
2019-01-09T14:23:33.582Z,101180.28
2019-01-09T14:26:03.480Z,101187.16
2019-01-09T14:28:33.266Z,101186.59
2019-01-09T14:31:03.040Z,101188.42
2019-01-09T14:33:32.859Z,101191.70
2019-01-09T14:36:02.713Z,101193.59
2019-01-09T14:38:32.597Z,101184.97
2019-01-09T14:41:05.360Z,101186.80
2019-01-09T14:43:35.254Z,101186.30
2019-01-09T14:46:05.091Z,101188.27
2019-01-09T14:48:34.882Z,101190.31
2019-01-09T14:51:04.899Z,101188.11
2019-01-09T14:53:34.676Z,101182.85
2019-01-09T14:56:04.637Z,101197.78
2019-01-09T14:58:34.745Z,101208.10
2019-01-09T15:01:04.545Z,101207.33
2019-01-09T15:03:34.432Z,101221.83
2019-01-09T15:06:04.233Z,101215.84
2019-01-09T15:08:34.034Z,101216.47
2019-01-09T15:11:06.372Z,101226.27
2019-01-09T15:13:36.205Z,101227.11
2019-01-09T15:16:06.095Z,101235.73
2019-01-09T15:18:35.933Z,101227.08
2019-01-09T15:21:05.684Z,101233.29
2019-01-09T15:23:35.517Z,101234.27
2019-01-09T15:26:05.312Z,101233.89
2019-01-09T15:28:35.138Z,101239.50
2019-01-09T15:31:05.124Z,101244.41
2019-01-09T15:33:34.901Z,101247.37
2019-01-09T15:36:05.003Z,101256.73
2019-01-09T15:38:34.810Z,101265.53
2019-01-09T15:41:07.581Z,101260.09
2019-01-09T15:43:37.474Z,101267.72
2019-01-09T15:46:07.271Z,101272.43
2019-01-09T15:48:37.064Z,101273.92
2019-01-09T15:51:06.858Z,101274.88
2019-01-09T15:53:36.650Z,101278.34
2019-01-09T15:56:06.443Z,101277.22
2019-01-09T15:58:36.268Z,101273.19
2019-01-09T16:01:06.508Z,101275.38
2019-01-09T16:03:36.337Z,101278.55
2019-01-09T16:06:06.165Z,101274.33
2019-01-09T16:08:35.983Z,101269.47
2019-01-09T16:11:06.295Z,101276.91
2019-01-09T16:13:36.080Z,101277.32
2019-01-09T16:16:05.976Z,101284.52
2019-01-09T16:18:35.788Z,101282.64
2019-01-09T16:21:05.616Z,101283.52
2019-01-09T16:23:35.348Z,101283.78
2019-01-09T16:26:05.568Z,101288.00
2019-01-09T16:28:35.359Z,101285.89
2019-01-09T16:31:09.673Z,101286.33
2019-01-09T16:33:40.421Z,101295.08
2019-01-09T16:36:10.243Z,101294.37
2019-01-09T16:38:40.028Z,101295.40
2019-01-09T16:41:09.838Z,101301.52
2019-01-09T16:43:39.646Z,101296.05
2019-01-09T16:46:09.626Z,101299.14
2019-01-09T16:48:39.718Z,101301.63
2019-01-09T16:51:09.735Z,101306.28
2019-01-09T16:53:39.710Z,101306.95
2019-01-09T16:56:09.603Z,101307.63
2019-01-09T16:58:39.475Z,101310.38
2019-01-09T17:01:09.457Z,101314.09
2019-01-09T17:03:39.470Z,101317.96
2019-01-09T17:06:09.293Z,101324.08
2019-01-09T17:08:39.098Z,101324.34
2019-01-09T17:11:08.972Z,101329.39
2019-01-09T17:13:38.766Z,101335.00
2019-01-09T17:16:08.615Z,101337.48
2019-01-09T17:18:38.419Z,101334.80
2019-01-09T17:21:08.325Z,101342.21
2019-01-09T17:23:38.505Z,101339.73
2019-01-09T17:26:08.351Z,101338.28
2019-01-09T17:28:38.191Z,101348.23
2019-01-09T17:31:07.953Z,101351.99
2019-01-09T17:33:37.987Z,101352.45
2019-01-09T17:36:08.284Z,101354.31
2019-01-09T17:38:38.071Z,101354.45
2019-01-09T17:41:07.902Z,101359.40
2019-01-09T17:43:37.691Z,101364.33
2019-01-09T17:46:07.481Z,101363.70
2019-01-09T17:48:37.324Z,101368.66
2019-01-09T17:51:07.118Z,101366.55
2019-01-09T17:53:36.947Z,101375.09
2019-01-09T17:56:06.816Z,101380.82
2019-01-09T17:58:36.634Z,101381.78
2019-01-09T18:01:06.588Z,101381.11
2019-01-09T18:03:36.390Z,101386.86
2019-01-09T18:06:06.274Z,101388.14
2019-01-09T18:08:36.087Z,101385.58
2019-01-09T18:11:06.279Z,101394.14
2019-01-09T18:13:36.078Z,101400.38
2019-01-09T18:16:06.287Z,101402.53
2019-01-09T18:18:36.100Z,101396.09
2019-01-09T18:21:06.036Z,101398.86
2019-01-09T18:23:35.887Z,101404.41
2019-01-09T18:26:05.897Z,101409.23
2019-01-09T18:28:35.935Z,101409.63
2019-01-09T18:31:19.763Z,101410.28
2019-01-09T18:33:54.501Z,101418.61
2019-01-09T18:36:49.490Z,101416.22
2019-01-09T18:39:41.716Z,101421.03
2019-01-09T18:42:38.996Z,101427.61
2019-01-09T18:45:27.977Z,101430.69
2019-01-09T18:48:31.661Z,101426.22
2019-01-09T18:51:08.942Z,101434.03
2019-01-09T18:53:38.759Z,101432.98
2019-01-09T18:56:08.562Z,101443.26
2019-01-09T18:58:38.377Z,101446.17
2019-01-09T19:01:08.376Z,101449.95
2019-01-09T19:03:38.176Z,101450.38
2019-01-09T19:06:07.953Z,101453.75
2019-01-09T19:08:37.744Z,101459.08
2019-01-09T19:11:08.113Z,101466.16
2019-01-09T19:13:38.372Z,101465.69
2019-01-09T19:16:08.635Z,101470.82
2019-01-09T19:18:38.632Z,101464.56
2019-01-09T19:21:08.433Z,101462.06
2019-01-09T19:23:38.296Z,101469.70
2019-01-09T19:26:08.186Z,101469.40
2019-01-09T19:28:38.231Z,101477.89
2019-01-09T19:31:08.139Z,101476.60
2019-01-09T19:33:38.271Z,101484.89
2019-01-09T19:36:08.063Z,101483.71
2019-01-09T19:38:38.252Z,101481.45
2019-01-09T19:41:16.736Z,101485.64
2019-01-09T19:43:40.335Z,101487.87
2019-01-09T19:46:10.149Z,101490.20
2019-01-09T19:48:40.226Z,101491.25
2019-01-09T19:51:17.316Z,101497.16
2019-01-09T19:53:42.344Z,101497.69
2019-01-09T19:56:12.165Z,101495.06
2019-01-09T19:58:41.989Z,101502.23
2019-01-09T20:01:12.660Z,101501.69
2019-01-09T20:03:42.453Z,101508.81
2019-01-09T20:06:12.374Z,101504.20
2019-01-09T20:08:42.196Z,101515.27
2019-01-09T20:11:11.930Z,101509.45
2019-01-09T20:13:41.771Z,101509.27
2019-01-09T20:16:11.558Z,101512.52
2019-01-09T20:18:41.361Z,101518.25
2019-01-09T20:21:11.182Z,101523.91
2019-01-09T20:23:40.988Z,101525.70
2019-01-09T20:26:10.894Z,101530.69
2019-01-09T20:28:59.988Z,101529.19
2019-01-09T20:31:29.790Z,101535.69
2019-01-09T20:33:59.641Z,101535.57
2019-01-09T20:36:29.456Z,101536.30
2019-01-09T20:38:59.254Z,101534.40
2019-01-09T20:41:35.100Z,101541.34
2019-01-09T20:44:00.592Z,101546.95
2019-01-09T20:46:30.497Z,101550.20
2019-01-09T20:49:00.325Z,101548.02
2019-01-09T20:51:30.125Z,101557.37
2019-01-09T20:54:00.103Z,101555.11
2019-01-09T20:56:30.007Z,101562.11
2019-01-09T20:59:00.042Z,101558.34
2019-01-09T21:01:29.980Z,101560.16
2019-01-09T21:03:59.832Z,101557.83
2019-01-09T21:06:29.634Z,101571.29
2019-01-09T21:09:00.161Z,101569.80
2019-01-09T21:11:30.135Z,101573.05
2019-01-09T21:13:59.983Z,101577.16
2019-01-09T21:16:29.789Z,101578.70
2019-01-09T21:18:59.574Z,101582.33
2019-01-09T21:21:29.453Z,101580.75
2019-01-09T21:23:59.288Z,101581.81
2019-01-09T21:26:29.102Z,101588.31
2019-01-09T21:28:58.935Z,101580.46
2019-01-09T21:31:28.756Z,101586.91
2019-01-09T21:33:58.552Z,101581.63
2019-01-09T21:36:28.344Z,101578.59
2019-01-09T21:38:58.478Z,101582.55
2019-01-09T21:41:28.309Z,101580.97
2019-01-09T21:43:58.101Z,101585.85
2019-01-09T21:46:28.101Z,101591.39
2019-01-09T21:48:58.252Z,101591.42
2019-01-09T21:51:28.128Z,101589.92
2019-01-09T21:53:57.936Z,101596.36
2019-01-09T21:56:27.710Z,101598.50
2019-01-09T21:58:57.757Z,101601.11
2019-01-09T22:01:27.543Z,101602.30
2019-01-09T22:03:57.343Z,101606.42
2019-01-09T22:06:27.100Z,101610.67
2019-01-09T22:08:56.921Z,101618.66
2019-01-09T22:11:26.701Z,101613.44
2019-01-09T22:13:56.522Z,101611.82
2019-01-09T22:16:26.322Z,101613.88
2019-01-09T22:18:56.106Z,101618.28
2019-01-09T22:21:25.923Z,101618.98
2019-01-09T22:23:55.846Z,101619.64
2019-01-09T22:26:25.625Z,101621.08
2019-01-09T22:28:55.461Z,101617.37
2019-01-09T22:31:25.250Z,101618.43
2019-01-09T22:33:55.262Z,101630.31
2019-01-09T22:36:25.195Z,101627.86
2019-01-09T22:38:54.987Z,101630.58
2019-01-09T22:41:24.792Z,101628.78
2019-01-09T22:43:54.641Z,101630.65
2019-01-09T22:46:24.439Z,101636.73
2019-01-09T22:48:54.452Z,101636.77
2019-01-09T22:51:24.239Z,101636.66
2019-01-09T22:53:54.042Z,101637.88
2019-01-09T22:56:23.823Z,101631.92
2019-01-09T22:58:53.655Z,101635.34
2019-01-09T23:01:23.433Z,101635.52
2019-01-09T23:03:53.243Z,101651.36
2019-01-09T23:06:23.008Z,101652.70
2019-01-09T23:08:52.938Z,101659.78
2019-01-09T23:11:22.819Z,101650.28
2019-01-09T23:13:52.744Z,101651.53
2019-01-09T23:16:22.519Z,101650.09
2019-01-09T23:18:52.625Z,101649.29
2019-01-09T23:21:22.454Z,101658.49
2019-01-09T23:23:52.212Z,101657.28
2019-01-09T23:26:22.114Z,101660.59
2019-01-09T23:28:51.949Z,101658.83
2019-01-09T23:31:21.750Z,101657.94
2019-01-09T23:33:51.543Z,101642.38
2019-01-09T23:36:21.381Z,101642.20
2019-01-09T23:38:51.406Z,101643.59
2019-01-09T23:41:21.196Z,101647.56
2019-01-09T23:43:50.994Z,101656.16
2019-01-09T23:46:20.771Z,101667.91
2019-01-09T23:48:50.564Z,101666.92
2019-01-09T23:51:20.338Z,101670.16
2019-01-09T23:53:50.150Z,101673.28
2019-01-09T23:56:19.933Z,101671.83
2019-01-09T23:58:50.106Z,101685.22
